sensor_id;sensor_type;location;lat;lon;timestamp;pressure;altitude;pressure_sealevel;temperature;humidity
8160;BME280;27404;52.398;9.646;2022-11-04T00:01:43;99328.34;;;9.98;100.00
8160;BME280;27404;52.398;9.646;2022-11-04T00:04:10;99327.81;;;10.01;100.00
8160;BME280;27404;52.398;9.646;2022-11-04T00:06:36;99327.84;;;10.06;100.00
8160;BME280;27404;52.398;9.646;2022-11-04T00:09:04;99318.84;;;10.05;100.00
8160;BME280;27404;52.398;9.646;2022-11-04T00:11:30;99315.84;;;10.07;100.00
8160;BME280;27404;52.398;9.646;2022-11-04T00:14:14;99314.19;;;10.06;100.00
8160;BME280;27404;52.398;9.646;2022-11-04T00:16:40;99308.72;;;10.06;100.00
8160;BME280;27404;52.398;9.646;2022-11-04T00:19:24;99317.75;;;10.06;100.00
8160;BME280;27404;52.398;9.646;2022-11-04T00:21:50;99310.91;;;10.04;100.00
8160;BME280;27404;52.398;9.646;2022-11-04T00:24:34;99327.59;;;10.07;100.00
8160;BME280;27404;52.398;9.646;2022-11-04T00:27:13;99321.84;;;10.09;100.00
8160;BME280;27404;52.398;9.646;2022-11-04T00:29:57;99329.28;;;10.14;100.00
8160;BME280;27404;52.398;9.646;2022-11-04T00:32:23;99327.34;;;10.14;100.00
8160;BME280;27404;52.398;9.646;2022-11-04T00:35:08;99332.88;;;10.25;100.00
8160;BME280;27404;52.398;9.646;2022-11-04T00:37:40;99332.00;;;10.14;100.00
8160;BME280;27404;52.398;9.646;2022-11-04T00:40:08;99340.44;;;10.12;100.00
8160;BME280;27404;52.398;9.646;2022-11-04T00:42:34;99328.75;;;10.17;100.00
8160;BME280;27404;52.398;9.646;2022-11-04T00:45:00;99323.25;;;10.12;100.00
8160;BME280;27404;52.398;9.646;2022-11-04T00:47:26;99335.81;;;10.13;100.00
8160;BME280;27404;52.398;9.646;2022-11-04T00:49:51;99334.47;;;10.15;100.00
8160;BME280;27404;52.398;9.646;2022-11-04T00:52:17;99341.81;;;10.10;100.00
8160;BME280;27404;52.398;9.646;2022-11-04T00:54:43;99339.88;;;10.10;100.00
8160;BME280;27404;52.398;9.646;2022-11-04T00:57:09;99336.34;;;10.10;100.00
8160;BME280;27404;52.398;9.646;2022-11-04T00:59:35;99344.84;;;10.18;100.00
8160;BME280;27404;52.398;9.646;2022-11-04T01:02:01;99334.47;;;10.15;100.00
8160;BME280;27404;52.398;9.646;2022-11-04T01:04:26;99344.00;;;10.13;100.00
8160;BME280;27404;52.398;9.646;2022-11-04T01:06:52;99342.06;;;10.08;100.00
8160;BME280;27404;52.398;9.646;2022-11-04T01:09:17;99348.59;;;10.07;100.00
8160;BME280;27404;52.398;9.646;2022-11-04T01:11:43;99343.16;;;10.07;100.00
8160;BME280;27404;52.398;9.646;2022-11-04T01:14:08;99339.31;;;10.08;100.00
8160;BME280;27404;52.398;9.646;2022-11-04T01:16:34;99344.81;;;10.13;100.00
8160;BME280;27404;52.398;9.646;2022-11-04T01:18:59;99337.44;;;10.08;100.00
8160;BME280;27404;52.398;9.646;2022-11-04T01:21:25;99344.00;;;10.13;100.00
8160;BME280;27404;52.398;9.646;2022-11-04T01:23:50;99353.84;;;10.14;100.00
8160;BME280;27404;52.398;9.646;2022-11-04T01:26:18;99351.94;;;10.14;100.00
8160;BME280;27404;52.398;9.646;2022-11-04T01:28:45;99354.69;;;10.19;100.00
8160;BME280;27404;52.398;9.646;2022-11-04T01:31:12;99344.53;;;10.10;100.00
8160;BME280;27404;52.398;9.646;2022-11-04T01:33:39;99345.66;;;10.14;100.00
8160;BME280;27404;52.398;9.646;2022-11-04T01:36:05;99333.63;;;10.10;100.00
8160;BME280;27404;52.398;9.646;2022-11-04T01:38:31;99327.88;;;10.11;100.00
8160;BME280;27404;52.398;9.646;2022-11-04T01:40:57;99328.16;;;10.10;100.00
8160;BME280;27404;52.398;9.646;2022-11-04T01:43:57;99329.78;;;10.05;100.00
8160;BME280;27404;52.398;9.646;2022-11-04T01:48:51;99345.31;;;10.05;100.00
8160;BME280;27404;52.398;9.646;2022-11-04T01:51:18;99364.22;;;10.12;100.00
8160;BME280;27404;52.398;9.646;2022-11-04T01:53:45;99366.91;;;10.06;100.00
8160;BME280;27404;52.398;9.646;2022-11-04T01:56:12;99361.16;;;10.08;100.00
8160;BME280;27404;52.398;9.646;2022-11-04T01:58:43;99360.38;;;10.07;100.00
8160;BME280;27404;52.398;9.646;2022-11-04T02:01:10;99357.31;;;10.04;100.00
8160;BME280;27404;52.398;9.646;2022-11-04T02:03:57;99351.06;;;10.03;100.00
8160;BME280;27404;52.398;9.646;2022-11-04T02:06:45;99363.63;;;10.04;100.00
8160;BME280;27404;52.398;9.646;2022-11-04T02:09:12;99366.09;;;10.11;100.00
8160;BME280;27404;52.398;9.646;2022-11-04T02:11:37;99356.03;;;10.12;100.00
8160;BME280;27404;52.398;9.646;2022-11-04T02:14:21;99350.28;;;10.13;100.00
8160;BME280;27404;52.398;9.646;2022-11-04T02:16:48;99356.84;;;10.17;100.00
8160;BME280;27404;52.398;9.646;2022-11-04T02:24:45;99353.84;;;10.14;100.00
8160;BME280;27404;52.398;9.646;2022-11-04T02:30:04;99360.94;;;10.10;100.00
8160;BME280;27404;52.398;9.646;2022-11-04T02:32:59;99366.09;;;10.11;100.00
8160;BME280;27404;52.398;9.646;2022-11-04T02:40:49;99358.22;;;10.15;100.00
8160;BME280;27404;52.398;9.646;2022-11-04T02:46:34;99382.28;;;10.18;100.00
8160;BME280;27404;52.398;9.646;2022-11-04T02:51:30;99367.50;;;10.14;100.00
8160;BME280;27404;52.398;9.646;2022-11-04T02:54:15;99372.16;;;10.18;100.00
8160;BME280;27404;52.398;9.646;2022-11-04T02:56:48;99371.03;;;10.14;100.00
8160;BME280;27404;52.398;9.646;2022-11-04T03:00:02;99369.88;;;10.05;100.00
8160;BME280;27404;52.398;9.646;2022-11-04T03:02:11;99376.25;;;10.16;100.00
8160;BME280;27404;52.398;9.646;2022-11-04T03:04:43;99373.28;;;10.22;100.00
8160;BME280;27404;52.398;9.646;2022-11-04T03:07:11;99379.81;;;10.21;100.00
8160;BME280;27404;52.398;9.646;2022-11-04T03:09:43;99378.72;;;10.17;100.00
8160;BME280;27404;52.398;9.646;2022-11-04T03:12:12;99369.72;;;10.17;100.00
8160;BME280;27404;52.398;9.646;2022-11-04T03:14:44;99372.41;;;10.12;100.00
8160;BME280;27404;52.398;9.646;2022-11-04T03:17:18;99376.47;;;10.09;100.00
8160;BME280;27404;52.398;9.646;2022-11-04T03:19:52;99381.94;;;10.09;100.00
8160;BME280;27404;52.398;9.646;2022-11-04T03:22:22;99397.75;;;10.07;100.00
8160;BME280;27404;52.398;9.646;2022-11-04T03:24:50;99410.84;;;10.05;100.00
8160;BME280;27404;52.398;9.646;2022-11-04T03:30:15;99421.16;;;9.92;100.00
8160;BME280;27404;52.398;9.646;2022-11-04T03:33:02;99433.34;;;9.85;100.00
8160;BME280;27404;52.398;9.646;2022-11-04T03:35:31;99453.59;;;9.89;100.00
8160;BME280;27404;52.398;9.646;2022-11-04T03:37:57;99443.66;;;9.77;100.00
8160;BME280;27404;52.398;9.646;2022-11-04T03:40:23;99448.84;;;9.74;100.00
8160;BME280;27404;52.398;9.646;2022-11-04T03:42:54;99466.81;;;9.70;100.00
8160;BME280;27404;52.398;9.646;2022-11-04T03:45:22;99473.53;;;9.62;100.00
8160;BME280;27404;52.398;9.646;2022-11-04T03:47:48;99475.13;;;9.53;100.00
8160;BME280;27404;52.398;9.646;2022-11-04T03:50:28;99488.69;;;9.47;100.00
8160;BME280;27404;52.398;9.646;2022-11-04T03:52:55;99493.31;;;9.47;100.00
8160;BME280;27404;52.398;9.646;2022-11-04T03:55:25;99496.81;;;9.42;100.00
8160;BME280;27404;52.398;9.646;2022-11-04T04:03:48;99506.25;;;9.34;100.00
8160;BME280;27404;52.398;9.646;2022-11-04T04:06:19;99506.78;;;9.31;100.00
8160;BME280;27404;52.398;9.646;2022-11-04T04:08:52;99520.41;;;9.31;100.00
8160;BME280;27404;52.398;9.646;2022-11-04T04:11:43;99527.56;;;9.38;100.00
8160;BME280;27404;52.398;9.646;2022-11-04T04:17:31;99530.63;;;9.41;100.00
8160;BME280;27404;52.398;9.646;2022-11-04T04:20:02;99525.25;;;9.46;100.00
8160;BME280;27404;52.398;9.646;2022-11-04T04:22:32;99530.06;;;9.39;100.00
8160;BME280;27404;52.398;9.646;2022-11-04T04:25:03;99528.16;;;9.40;100.00
8160;BME280;27404;52.398;9.646;2022-11-04T04:27:50;99541.84;;;9.45;100.00
8160;BME280;27404;52.398;9.646;2022-11-04T04:30:16;99542.94;;;9.44;100.00
8160;BME280;27404;52.398;9.646;2022-11-04T04:32:51;99553.31;;;9.47;100.00
8160;BME280;27404;52.398;9.646;2022-11-04T04:35:23;99549.16;;;9.39;100.00
8160;BME280;27404;52.398;9.646;2022-11-04T04:38:27;99559.50;;;9.37;100.00
8160;BME280;27404;52.398;9.646;2022-11-04T04:41:26;99559.16;;;9.33;100.00
8160;BME280;27404;52.398;9.646;2022-11-04T04:44:31;99564.69;;;9.39;100.00
8160;BME280;27404;52.398;9.646;2022-11-04T04:47:18;99567.47;;;9.44;100.00
8160;BME280;27404;52.398;9.646;2022-11-04T04:49:58;99560.94;;;9.45;100.00
8160;BME280;27404;52.398;9.646;2022-11-04T04:52:28;99557.91;;;9.41;100.00
8160;BME280;27404;52.398;9.646;2022-11-04T04:54:54;99548.81;;;9.36;100.00
8160;BME280;27404;52.398;9.646;2022-11-04T04:57:20;99542.75;;;9.28;100.00
8160;BME280;27404;52.398;9.646;2022-11-04T04:59:45;99552.53;;;9.24;100.00
8160;BME280;27404;52.398;9.646;2022-11-04T05:02:10;99552.56;;;9.29;100.00
8160;BME280;27404;52.398;9.646;2022-11-04T05:04:36;99544.84;;;9.21;100.00
8160;BME280;27404;52.398;9.646;2022-11-04T05:07:01;99548.41;;;9.22;100.00
8160;BME280;27404;52.398;9.646;2022-11-04T05:09:27;99551.00;;;9.11;100.00
8160;BME280;27404;52.398;9.646;2022-11-04T05:11:52;99557.78;;;9.09;100.00
8160;BME280;27404;52.398;9.646;2022-11-04T05:14:18;99562.81;;;9.00;100.00
8160;BME280;27404;52.398;9.646;2022-11-04T05:16:44;99568.78;;;8.97;100.00
8160;BME280;27404;52.398;9.646;2022-11-04T05:19:09;99573.66;;;8.95;100.00
8160;BME280;27404;52.398;9.646;2022-11-04T05:21:35;99581.41;;;9.03;100.00
8160;BME280;27404;52.398;9.646;2022-11-04T05:24:00;99584.06;;;8.98;100.00
8160;BME280;27404;52.398;9.646;2022-11-04T05:26:25;99595.47;;;8.95;100.00
8160;BME280;27404;52.398;9.646;2022-11-04T05:28:51;99592.28;;;8.81;100.00
8160;BME280;27404;52.398;9.646;2022-11-04T05:31:16;99589.81;;;8.79;100.00
8160;BME280;27404;52.398;9.646;2022-11-04T05:33:42;99597.66;;;8.76;100.00
8160;BME280;27404;52.398;9.646;2022-11-04T05:36:12;99606.91;;;8.74;100.00
8160;BME280;27404;52.398;9.646;2022-11-04T05:38:38;99602.44;;;8.68;100.00
8160;BME280;27404;52.398;9.646;2022-11-04T05:41:05;99598.75;;;8.57;100.00
8160;BME280;27404;52.398;9.646;2022-11-04T05:43:31;99594.75;;;8.65;100.00
8160;BME280;27404;52.398;9.646;2022-11-04T05:45:57;99590.47;;;8.52;100.00
8160;BME280;27404;52.398;9.646;2022-11-04T05:48:23;99596.78;;;8.53;100.00
8160;BME280;27404;52.398;9.646;2022-11-04T05:50:49;99613.59;;;8.50;100.00
8160;BME280;27404;52.398;9.646;2022-11-04T05:53:14;99618.09;;;8.44;100.00
8160;BME280;27404;52.398;9.646;2022-11-04T05:55:40;99629.09;;;8.49;100.00
8160;BME280;27404;52.398;9.646;2022-11-04T05:58:05;99624.38;;;8.44;100.00
8160;BME280;27404;52.398;9.646;2022-11-04T06:00:31;99632.06;;;8.48;100.00
8160;BME280;27404;52.398;9.646;2022-11-04T06:02:56;99625.09;;;8.40;100.00
8160;BME280;27404;52.398;9.646;2022-11-04T06:05:22;99629.06;;;8.32;100.00
8160;BME280;27404;52.398;9.646;2022-11-04T06:07:48;99635.31;;;8.33;100.00
8160;BME280;27404;52.398;9.646;2022-11-04T06:10:13;99636.75;;;8.35;100.00
8160;BME280;27404;52.398;9.646;2022-11-04T06:12:39;99641.44;;;8.40;100.00
8160;BME280;27404;52.398;9.646;2022-11-04T06:15:05;99634.03;;;8.35;100.00
8160;BME280;27404;52.398;9.646;2022-11-04T06:17:31;99629.38;;;8.36;100.00
8160;BME280;27404;52.398;9.646;2022-11-04T06:19:56;99626.44;;;8.37;100.00
8160;BME280;27404;52.398;9.646;2022-11-04T06:22:22;99633.84;;;8.42;100.00
8160;BME280;27404;52.398;9.646;2022-11-04T06:24:47;99640.00;;;8.49;100.00
8160;BME280;27404;52.398;9.646;2022-11-04T06:27:13;99654.91;;;8.47;100.00
8160;BME280;27404;52.398;9.646;2022-11-04T06:29:39;99659.44;;;8.41;100.00
8160;BME280;27404;52.398;9.646;2022-11-04T06:32:16;99659.28;;;8.48;100.00
8160;BME280;27404;52.398;9.646;2022-11-04T06:34:42;99670.41;;;8.58;100.00
8160;BME280;27404;52.398;9.646;2022-11-04T06:37:08;99672.38;;;8.63;100.00
8160;BME280;27404;52.398;9.646;2022-11-04T06:39:34;99684.03;;;8.75;100.00
8160;BME280;27404;52.398;9.646;2022-11-04T06:42:00;99693.94;;;8.81;100.00
8160;BME280;27404;52.398;9.646;2022-11-04T06:44:25;99710.88;;;8.83;100.00
8160;BME280;27404;52.398;9.646;2022-11-04T06:46:51;99718.28;;;8.88;100.00
8160;BME280;27404;52.398;9.646;2022-11-04T06:49:18;99721.88;;;8.88;100.00
8160;BME280;27404;52.398;9.646;2022-11-04T06:51:45;99727.63;;;8.92;100.00
8160;BME280;27404;52.398;9.646;2022-11-04T06:54:11;99736.13;;;8.96;100.00
8160;BME280;27404;52.398;9.646;2022-11-04T06:56:38;99728.88;;;9.01;100.00
8160;BME280;27404;52.398;9.646;2022-11-04T06:59:03;99729.63;;;9.14;100.00
8160;BME280;27404;52.398;9.646;2022-11-04T07:01:31;99725.31;;;9.18;100.00
8160;BME280;27404;52.398;9.646;2022-11-04T07:03:58;99717.97;;;9.18;100.00
8160;BME280;27404;52.398;9.646;2022-11-04T07:06:25;99704.66;;;9.22;100.00
8160;BME280;27404;52.398;9.646;2022-11-04T07:08:52;99712.66;;;9.29;100.00
8160;BME280;27404;52.398;9.646;2022-11-04T07:11:20;99710.69;;;9.24;100.00
8160;BME280;27404;52.398;9.646;2022-11-04T07:13:47;99717.03;;;9.30;100.00
8160;BME280;27404;52.398;9.646;2022-11-04T07:16:13;99723.25;;;9.25;100.00
8160;BME280;27404;52.398;9.646;2022-11-04T07:18:39;99726.72;;;9.21;100.00
8160;BME280;27404;52.398;9.646;2022-11-04T07:21:05;99725.16;;;9.25;100.00
8160;BME280;27404;52.398;9.646;2022-11-04T07:23:31;99728.75;;;9.30;100.00
8160;BME280;27404;52.398;9.646;2022-11-04T07:26:00;99729.09;;;9.34;100.00
8160;BME280;27404;52.398;9.646;2022-11-04T07:28:26;99732.06;;;9.32;100.00
8160;BME280;27404;52.398;9.646;2022-11-04T07:30:55;99742.25;;;9.37;100.00
8160;BME280;27404;52.398;9.646;2022-11-04T07:33:20;99728.09;;;9.40;100.00
8160;BME280;27404;52.398;9.646;2022-11-04T07:35:46;99730.56;;;9.42;100.00
8160;BME280;27404;52.398;9.646;2022-11-04T07:38:11;99729.66;;;9.53;100.00
8160;BME280;27404;52.398;9.646;2022-11-04T07:40:36;99741.47;;;9.59;100.00
8160;BME280;27404;52.398;9.646;2022-11-04T07:43:03;99735.81;;;9.66;100.00
8160;BME280;27404;52.398;9.646;2022-11-04T07:45:29;99737.22;;;9.68;100.00
8160;BME280;27404;52.398;9.646;2022-11-04T07:47:54;99750.94;;;9.73;100.00
8160;BME280;27404;52.398;9.646;2022-11-04T07:50:19;99756.66;;;9.72;100.00
8160;BME280;27404;52.398;9.646;2022-11-04T07:52:45;99753.66;;;9.73;100.00
8160;BME280;27404;52.398;9.646;2022-11-04T07:55:10;99758.94;;;9.80;100.00
8160;BME280;27404;52.398;9.646;2022-11-04T07:57:43;99757.22;;;9.74;100.00
8160;BME280;27404;52.398;9.646;2022-11-04T08:00:09;99765.91;;;9.71;100.00
8160;BME280;27404;52.398;9.646;2022-11-04T08:02:34;99771.69;;;9.74;100.00
8160;BME280;27404;52.398;9.646;2022-11-04T08:05:00;99777.41;;;9.73;100.00
8160;BME280;27404;52.398;9.646;2022-11-04T08:07:26;99779.28;;;9.72;100.00
8160;BME280;27404;52.398;9.646;2022-11-04T08:09:51;99777.41;;;9.73;100.00
8160;BME280;27404;52.398;9.646;2022-11-04T08:12:17;99781.88;;;9.79;100.00
8160;BME280;27404;52.398;9.646;2022-11-04T08:14:44;99791.34;;;9.93;100.00
8160;BME280;27404;52.398;9.646;2022-11-04T08:17:10;99796.84;;;9.99;100.00
8160;BME280;27404;52.398;9.646;2022-11-04T08:19:35;99812.13;;;10.17;100.00
8160;BME280;27404;52.398;9.646;2022-11-04T08:22:01;99810.66;;;10.09;100.00
8160;BME280;27404;52.398;9.646;2022-11-04T08:24:26;99810.41;;;10.11;100.00
8160;BME280;27404;52.398;9.646;2022-11-04T08:26:51;99807.81;;;10.21;100.00
8160;BME280;27404;52.398;9.646;2022-11-04T08:29:17;99814.44;;;10.08;100.00
8160;BME280;27404;52.398;9.646;2022-11-04T08:31:42;99817.19;;;10.08;100.00
8160;BME280;27404;52.398;9.646;2022-11-04T08:34:08;99826.16;;;10.03;100.00
8160;BME280;27404;52.398;9.646;2022-11-04T08:36:36;99818.69;;;9.99;100.00
8160;BME280;27404;52.398;9.646;2022-11-04T08:39:03;99818.75;;;10.04;100.00
8160;BME280;27404;52.398;9.646;2022-11-04T08:41:30;99824.41;;;9.97;100.00
8160;BME280;27404;52.398;9.646;2022-11-04T08:43:57;99832.53;;;9.92;100.00
8160;BME280;27404;52.398;9.646;2022-11-04T08:46:26;99839.38;;;9.95;100.00
8160;BME280;27404;52.398;9.646;2022-11-04T08:48:52;99833.84;;;10.06;100.00
8160;BME280;27404;52.398;9.646;2022-11-04T08:51:20;99818.41;;;10.17;100.00
8160;BME280;27404;52.398;9.646;2022-11-04T08:53:46;99814.41;;;10.25;100.00
8160;BME280;27404;52.398;9.646;2022-11-04T08:56:33;99813.66;;;10.30;100.00
8160;BME280;27404;52.398;9.646;2022-11-04T08:58:59;99809.78;;;10.26;100.00
8160;BME280;27404;52.398;9.646;2022-11-04T09:01:28;99806.41;;;10.41;100.00
8160;BME280;27404;52.398;9.646;2022-11-04T09:03:54;99820.53;;;10.55;100.00
8160;BME280;27404;52.398;9.646;2022-11-04T09:06:27;99826.31;;;10.58;100.00
8160;BME280;27404;52.398;9.646;2022-11-04T09:08:53;99829.81;;;10.54;100.00
8160;BME280;27404;52.398;9.646;2022-11-04T09:11:27;99821.22;;;10.45;100.00
8160;BME280;27404;52.398;9.646;2022-11-04T09:13:52;99829.56;;;10.55;100.00
8160;BME280;27404;52.398;9.646;2022-11-04T09:16:18;99830.50;;;10.44;100.00
8160;BME280;27404;52.398;9.646;2022-11-04T09:18:44;99834.22;;;10.37;100.00
8160;BME280;27404;52.398;9.646;2022-11-04T09:21:10;99836.03;;;10.49;100.00
8160;BME280;27404;52.398;9.646;2022-11-04T09:23:36;99837.69;;;10.50;100.00
8160;BME280;27404;52.398;9.646;2022-11-04T09:26:08;99829.75;;;10.48;100.00
8160;BME280;27404;52.398;9.646;2022-11-04T09:28:34;99833.75;;;10.41;100.00
8160;BME280;27404;52.398;9.646;2022-11-04T09:31:04;99840.28;;;10.40;100.00
8160;BME280;27404;52.398;9.646;2022-11-04T09:33:31;99842.34;;;10.32;100.00
8160;BME280;27404;52.398;9.646;2022-11-04T09:35:57;99837.72;;;10.33;100.00
8160;BME280;27404;52.398;9.646;2022-11-04T09:38:24;99839.81;;;10.26;100.00
8160;BME280;27404;52.398;9.646;2022-11-04T09:40:50;99837.97;;;10.31;100.00
8160;BME280;27404;52.398;9.646;2022-11-04T09:45:47;99841.34;;;10.38;100.00
8160;BME280;27404;52.398;9.646;2022-11-04T09:48:34;99839.84;;;10.48;100.00
8160;BME280;27404;52.398;9.646;2022-11-04T09:51:04;99838.31;;;10.57;100.00
8160;BME280;27404;52.398;9.646;2022-11-04T09:53:41;99846.38;;;10.69;100.00
8160;BME280;27404;52.398;9.646;2022-11-04T09:56:16;99847.84;;;10.77;100.00
8160;BME280;27404;52.398;9.646;2022-11-04T09:58:43;99839.06;;;10.75;100.00
8160;BME280;27404;52.398;9.646;2022-11-04T10:01:54;99838.97;;;10.92;100.00
8160;BME280;27404;52.398;9.646;2022-11-04T10:04:03;99834.59;;;10.91;100.00
8160;BME280;27404;52.398;9.646;2022-11-04T10:09:25;99833.28;;;10.99;100.00
8160;BME280;27404;52.398;9.646;2022-11-04T10:12:40;99827.72;;;11.16;100.00
8160;BME280;27404;52.398;9.646;2022-11-04T10:20:49;99833.16;;;10.83;100.00
8160;BME280;27404;52.398;9.646;2022-11-04T10:23:30;99833.72;;;10.63;100.00
8160;BME280;27404;52.398;9.646;2022-11-04T10:26:43;99837.53;;;10.62;100.00
8160;BME280;27404;52.398;9.646;2022-11-04T10:29:27;99842.25;;;10.66;100.00
8160;BME280;27404;52.398;9.646;2022-11-04T10:31:57;99838.38;;;10.62;100.00
8160;BME280;27404;52.398;9.646;2022-11-04T10:34:33;99847.03;;;10.54;100.00
8160;BME280;27404;52.398;9.646;2022-11-04T10:37:00;99850.47;;;10.44;100.00
8160;BME280;27404;52.398;9.646;2022-11-04T10:39:31;99870.47;;;10.50;100.00
8160;BME280;27404;52.398;9.646;2022-11-04T10:41:59;99877.16;;;10.59;100.00
8160;BME280;27404;52.398;9.646;2022-11-04T10:44:27;99885.19;;;10.93;100.00
8160;BME280;27404;52.398;9.646;2022-11-04T10:49:42;99884.66;;;11.51;100.00
8160;BME280;27404;52.398;9.646;2022-11-04T10:52:12;99886.38;;;11.58;100.00
8160;BME280;27404;52.398;9.646;2022-11-04T10:54:44;99888.25;;;11.57;100.00
8160;BME280;27404;52.398;9.646;2022-11-04T10:57:11;99898.19;;;11.63;100.00
8160;BME280;27404;52.398;9.646;2022-11-04T10:59:59;99905.53;;;11.58;100.00
8160;BME280;27404;52.398;9.646;2022-11-04T11:02:45;99898.03;;;11.48;100.00
8160;BME280;27404;52.398;9.646;2022-11-04T11:05:22;99903.41;;;11.37;100.00
8160;BME280;27404;52.398;9.646;2022-11-04T11:07:53;99899.63;;;11.44;100.00
8160;BME280;27404;52.398;9.646;2022-11-04T11:10:24;99904.03;;;11.45;100.00
8160;BME280;27404;52.398;9.646;2022-11-04T11:13:02;99908.41;;;11.46;100.00
8160;BME280;27404;52.398;9.646;2022-11-04T11:15:35;99901.28;;;11.45;100.00
8160;BME280;27404;52.398;9.646;2022-11-04T11:20:30;99888.91;;;11.37;100.00
8160;BME280;27404;52.398;9.646;2022-11-04T11:22:58;99885.16;;;11.43;100.00
8160;BME280;27404;52.398;9.646;2022-11-04T11:25:34;99894.50;;;11.47;100.00
8160;BME280;27404;52.398;9.646;2022-11-04T11:28:09;99884.06;;;11.44;100.00
8160;BME280;27404;52.398;9.646;2022-11-04T11:33:35;99886.31;;;11.52;100.00
8160;BME280;27404;52.398;9.646;2022-11-04T11:38:56;99878.41;;;11.56;100.00
8160;BME280;27404;52.398;9.646;2022-11-04T11:41:24;99882.88;;;11.67;100.00
8160;BME280;27404;52.398;9.646;2022-11-04T11:43:58;99889.00;;;11.80;100.00
8160;BME280;27404;52.398;9.646;2022-11-04T11:46:30;99888.47;;;11.83;100.00
8160;BME280;27404;52.398;9.646;2022-11-04T11:49:01;99886.50;;;12.11;100.00
8160;BME280;27404;52.398;9.646;2022-11-04T11:51:29;99894.97;;;12.09;100.00
8160;BME280;27404;52.398;9.646;2022-11-04T11:56:45;99889.31;;;11.89;100.00
8160;BME280;27404;52.398;9.646;2022-11-04T11:59:20;99898.06;;;11.85;100.00
8160;BME280;27404;52.398;9.646;2022-11-04T12:04:40;99889.09;;;11.95;100.00
8160;BME280;27404;52.398;9.646;2022-11-04T12:07:19;99902.09;;;12.05;100.00
8160;BME280;27404;52.398;9.646;2022-11-04T12:10:02;99901.81;;;12.07;100.00
8160;BME280;27404;52.398;9.646;2022-11-04T12:12:41;99917.50;;;11.84;100.00
8160;BME280;27404;52.398;9.646;2022-11-04T12:15:49;99910.59;;;11.76;100.00
8160;BME280;27404;52.398;9.646;2022-11-04T12:18:35;99919.75;;;11.60;100.00
8160;BME280;27404;52.398;9.646;2022-11-04T12:21:12;99913.56;;;11.69;100.00
8160;BME280;27404;52.398;9.646;2022-11-04T12:23:56;99915.50;;;11.74;100.00
8160;BME280;27404;52.398;9.646;2022-11-04T12:34:48;99886.91;;;11.97;100.00
8160;BME280;27404;52.398;9.646;2022-11-04T12:37:35;99885.88;;;12.04;100.00
8160;BME280;27404;52.398;9.646;2022-11-04T12:45:06;99891.13;;;12.05;100.00
8160;BME280;27404;52.398;9.646;2022-11-04T12:47:41;99891.94;;;12.06;100.00
8160;BME280;27404;52.398;9.646;2022-11-04T13:01:07;99921.38;;;12.26;100.00
8160;BME280;27404;52.398;9.646;2022-11-04T13:03:52;99927.16;;;12.29;100.00
8160;BME280;27404;52.398;9.646;2022-11-04T13:06:29;99931.81;;;12.29;100.00
8160;BME280;27404;52.398;9.646;2022-11-04T13:09:02;99936.72;;;12.27;100.00
8160;BME280;27404;52.398;9.646;2022-11-04T13:14:05;99940.75;;;12.14;100.00
8160;BME280;27404;52.398;9.646;2022-11-04T13:16:39;99951.38;;;12.05;100.00
8160;BME280;27404;52.398;9.646;2022-11-04T13:19:50;99958.06;;;11.87;100.00
8160;BME280;27404;52.398;9.646;2022-11-04T13:22:29;99956.47;;;11.96;100.00
8160;BME280;27404;52.398;9.646;2022-11-04T13:25:16;99965.19;;;11.88;100.00
8160;BME280;27404;52.398;9.646;2022-11-04T13:27:46;99969.31;;;11.91;100.00
8160;BME280;27404;52.398;9.646;2022-11-04T13:33:26;99970.06;;;11.81;100.00
8160;BME280;27404;52.398;9.646;2022-11-04T13:36:20;99971.97;;;11.80;100.00
8160;BME280;27404;52.398;9.646;2022-11-04T13:39:00;99966.34;;;11.65;100.00
8160;BME280;27404;52.398;9.646;2022-11-04T13:44:17;99970.34;;;11.52;100.00
8160;BME280;27404;52.398;9.646;2022-11-04T13:46:49;99975.25;;;11.50;100.00
8160;BME280;27404;52.398;9.646;2022-11-04T13:49:20;99980.47;;;11.51;100.00
8160;BME280;27404;52.398;9.646;2022-11-04T13:52:13;99982.63;;;11.49;100.00
8160;BME280;27404;52.398;9.646;2022-11-04T13:54:44;99984.34;;;11.55;100.00
8160;BME280;27404;52.398;9.646;2022-11-04T13:59:39;99982.25;;;11.40;100.00
8160;BME280;27404;52.398;9.646;2022-11-04T14:04:41;99979.38;;;11.25;100.00
8160;BME280;27404;52.398;9.646;2022-11-04T14:07:09;99984.72;;;11.15;100.00
8160;BME280;27404;52.398;9.646;2022-11-04T14:14:36;99999.03;;;11.00;100.00
8160;BME280;27404;52.398;9.646;2022-11-04T14:17:02;100000.09;;;10.99;100.00
8160;BME280;27404;52.398;9.646;2022-11-04T14:20:09;99996.28;;;11.00;100.00
8160;BME280;27404;52.398;9.646;2022-11-04T14:27:56;100007.69;;;11.14;100.00
8160;BME280;27404;52.398;9.646;2022-11-04T14:30:45;100021.22;;;11.03;100.00
8160;BME280;27404;52.398;9.646;2022-11-04T14:35:51;100020.78;;;10.89;100.00
8160;BME280;27404;52.398;9.646;2022-11-04T14:38:29;100023.38;;;10.79;100.00
8160;BME280;27404;52.398;9.646;2022-11-04T14:43:47;100029.28;;;10.71;100.00
8160;BME280;27404;52.398;9.646;2022-11-04T14:46:25;100021.88;;;10.71;100.00
8160;BME280;27404;52.398;9.646;2022-11-04T14:48:56;100032.09;;;10.76;100.00
8160;BME280;27404;52.398;9.646;2022-11-04T14:51:28;100036.63;;;10.70;100.00
8160;BME280;27404;52.398;9.646;2022-11-04T14:54:21;100022.97;;;10.70;100.00
8160;BME280;27404;52.398;9.646;2022-11-04T14:56:50;100028.69;;;10.69;100.00
8160;BME280;27404;52.398;9.646;2022-11-04T14:59:23;100031.84;;;10.60;100.00
8160;BME280;27404;52.398;9.646;2022-11-04T15:01:52;100031.47;;;10.51;100.00
8160;BME280;27404;52.398;9.646;2022-11-04T15:04:28;100039.25;;;10.43;100.00
8160;BME280;27404;52.398;9.646;2022-11-04T15:07:00;100040.59;;;10.40;100.00
8160;BME280;27404;52.398;9.646;2022-11-04T15:09:28;100046.50;;;10.37;100.00
8160;BME280;27404;52.398;9.646;2022-11-04T15:12:05;100046.94;;;10.46;100.00
8160;BME280;27404;52.398;9.646;2022-11-04T15:14:51;100056.56;;;10.48;100.00
8160;BME280;27404;52.398;9.646;2022-11-04T15:17:19;100053.91;;;10.54;100.00
8160;BME280;27404;52.398;9.646;2022-11-04T15:19:51;100058.44;;;10.48;100.00